Time;durP1;ratioP1;P1;durP2;ratioP2;P2;SDS_P1;SDS_P2;PMS_P1;PMS_P2;Temp;Humidity;BMP_temperature;BMP_pressure;BME280_temperature;BME280_humidity;BME280_pressure;Samples;Min_cycle;Max_cycle;Signal;HPM_P1;HPM_P2
2023/10/24 00:01:45;;;;;;;1999.90;999.90;;;;;;;18.40;76.83;100153.34;10539921;28;20044;-61
2023/10/24 00:06:47;;;;;;;1999.90;999.90;;;;;;;17.73;80.09;100161.66;10539395;28;20056;-61
2023/10/24 00:11:50;;;;;;;1999.90;999.90;;;;;;;17.17;87.10;100137.06;10539132;28;20513;-61
2023/10/24 00:16:52;;;;;;;1999.90;999.90;;;;;;;17.09;86.39;100140.44;10539692;28;20127;-61
2023/10/24 00:21:55;;;;;;;1999.90;999.90;;;;;;;18.03;79.36;100130.53;10539503;28;20052;-62
2023/10/24 00:26:57;;;;;;;1999.90;999.90;;;;;;;17.95;79.45;100141.88;10504534;28;20132;-62
2023/10/24 00:32:00;;;;;;;1999.90;999.90;;;;;;;17.95;80.72;100133.09;10520956;28;20058;-62
2023/10/24 00:37:02;;;;;;;1999.90;999.90;;;;;;;17.86;78.87;100124.22;10538619;28;20605;-61
2023/10/24 00:42:05;;;;;;;1999.90;999.90;;;;;;;18.16;79.16;100127.50;10539117;28;20079;-61
2023/10/24 00:47:07;;;;;;;1999.90;999.90;;;;;;;18.20;80.24;100121.72;10539100;28;20051;-62
2023/10/24 00:52:10;;;;;;;1999.90;999.90;;;;;;;18.30;78.99;100132.22;10539047;28;20123;-61
2023/10/24 00:57:13;;;;;;;1999.90;999.90;;;;;;;17.86;80.66;100121.59;10520363;28;20061;-61
2023/10/24 01:02:16;;;;;;;1999.90;999.90;;;;;;;18.51;79.06;100123.13;10538161;28;20564;-61
2023/10/24 01:07:18;;;;;;;1999.90;999.90;;;;;;;18.33;78.56;100131.94;10520537;28;20052;-62
2023/10/24 01:12:21;;;;;;;1999.90;999.90;;;;;;;18.34;79.89;100135.41;10545551;28;20154;-61
2023/10/24 01:17:23;;;;;;;1999.90;999.90;;;;;;;17.22;86.34;100139.28;10527415;28;20059;-61
2023/10/24 01:22:26;;;;;;;1999.90;999.90;;;;;;;18.26;81.37;100132.72;10545930;28;20044;-62
2023/10/24 01:27:28;;;;;;;1999.90;999.90;;;;;;;17.94;83.55;100123.50;10544955;28;20404;-62
2023/10/24 01:32:31;;;;;;;1999.90;999.90;;;;;;;17.75;81.88;100127.09;10527600;28;20075;-62
2023/10/24 01:37:35;;;;;;;1999.90;999.90;;;;;;;17.59;83.54;100130.44;10544883;28;20507;-62
2023/10/24 01:42:38;;;;;;;1999.90;999.90;;;;;;;18.17;80.13;100121.19;10544887;28;20055;-62
2023/10/24 01:47:41;;;;;;;1999.90;999.90;;;;;;;17.92;82.00;100117.50;10527030;28;20051;-62
2023/10/24 01:52:44;;;;;;;1999.90;999.90;;;;;;;17.79;81.66;100121.34;10544527;28;20068;-62
2023/10/24 01:57:46;;;;;;;1999.90;999.90;;;;;;;17.70;82.29;100132.00;10525970;28;20049;-62
2023/10/24 02:02:48;;;;;;;1999.90;999.90;;;;;;;17.99;80.28;100123.88;10544121;28;20044;-61
2023/10/24 02:07:51;;;;;;;1999.90;999.90;;;;;;;18.35;77.84;100123.81;10543394;28;20063;-62
2023/10/24 02:12:53;;;;;;;1999.90;999.90;;;;;;;17.75;81.57;100093.53;10543018;28;20493;-61
2023/10/24 02:17:56;;;;;;;1999.90;999.90;;;;;;;17.80;81.46;100117.75;10543546;28;20044;-62
2023/10/24 02:22:58;;;;;;;1999.90;999.90;;;;;;;17.47;83.25;100111.28;10542130;28;20048;-62
2023/10/24 02:28:01;;;;;;;1999.90;999.90;;;;;;;17.89;79.92;100108.06;10543105;28;20052;-62
2023/10/24 02:33:03;;;;;;;1999.90;999.90;;;;;;;17.97;80.06;100107.28;10524489;28;20476;-61
2023/10/24 02:38:06;;;;;;;1999.90;999.90;;;;;;;17.29;81.78;100103.31;10542741;28;20048;-62
2023/10/24 02:43:08;;;;;;;1999.90;999.90;;;;;;;17.58;80.09;100103.09;10541931;28;20453;-62
2023/10/24 02:48:10;;;;;;;1999.90;999.90;;;;;;;17.76;80.78;100105.75;10542390;28;20062;-62
2023/10/24 02:53:13;;;;;;;1999.90;999.90;;;;;;;17.42;81.25;100110.91;10541593;28;20046;-62
2023/10/24 02:58:16;;;;;;;1999.90;999.90;;;;;;;17.38;82.41;100117.44;10541963;28;20131;-62
2023/10/24 03:03:19;;;;;;;1999.90;999.90;;;;;;;17.16;83.52;100121.34;10541083;28;20405;-62
2023/10/24 03:08:21;;;;;;;1999.90;999.90;;;;;;;17.69;80.36;100120.59;10522733;28;20416;-62
2023/10/24 03:13:23;;;;;;;1999.90;999.90;;;;;;;17.22;84.42;100126.06;10540828;28;20054;-62
2023/10/24 03:18:26;;;;;;;1999.90;999.90;;;;;;;17.09;83.50;100123.75;10540614;28;20052;-62
2023/10/24 03:23:28;;;;;;;1999.90;999.90;;;;;;;17.25;84.09;100134.53;10541027;28;20044;-61
2023/10/24 03:28:30;;;;;;;1999.90;999.90;;;;;;;17.46;82.26;100125.47;10540227;28;20489;-61
2023/10/24 03:33:34;;;;;;;1999.90;999.90;;;;;;;17.01;83.82;100132.44;10539761;28;20447;-62
2023/10/24 03:38:36;;;;;;;1999.90;999.90;;;;;;;16.92;82.62;100137.75;10539927;28;20442;-61
2023/10/24 03:43:47;;;;;;;1999.90;999.90;;;;;;;16.90;82.59;100138.72;10539732;28;20413;-61
2023/10/24 03:48:50;;;;;;;1999.90;999.90;;;;;;;17.77;78.97;100118.03;10540357;28;20048;-61
2023/10/24 03:53:53;;;;;;;1999.90;999.90;;;;;;;17.36;81.59;100130.84;10521638;28;20503;-61
2023/10/24 03:58:55;;;;;;;1999.90;999.90;;;;;;;16.87;81.68;100128.44;10539303;28;20044;-61
2023/10/24 04:03:57;;;;;;;1999.90;999.90;;;;;;;16.95;82.21;100138.28;10539369;28;20048;-62
2023/10/24 04:09:04;;;;;;;1999.90;999.90;;;;;;;17.40;79.24;100132.22;10539149;28;20055;-61
2023/10/24 04:14:07;;;;;;;1999.90;999.90;;;;;;;17.40;80.38;100131.38;10521799;28;20552;-61
2023/10/24 04:19:10;;;;;;;1999.90;999.90;;;;;;;17.25;79.48;100123.13;10539022;28;20503;-61
2023/10/24 04:24:12;;;;;;;1999.90;999.90;;;;;;;17.50;78.42;100124.22;10539507;28;20048;-62
2023/10/24 04:29:16;;;;;;;1999.90;999.90;;;;;;;17.45;79.76;100126.47;10539473;28;20048;-62
2023/10/24 04:34:18;;;;;;;1999.90;999.90;;;;;;;17.51;79.07;100122.41;10538746;28;20511;-61
2023/10/24 04:39:21;;;;;;;1999.90;999.90;;;;;;;17.61;79.74;100115.22;10538703;28;20078;-61
2023/10/24 04:44:23;;;;;;;1999.90;999.90;;;;;;;17.46;79.79;100105.13;10541920;28;20527;-61
2023/10/24 04:49:26;;;;;;;1999.90;999.90;;;;;;;17.20;80.47;100112.97;10547099;28;20059;-61
2023/10/24 04:54:28;;;;;;;1999.90;999.90;;;;;;;17.26;80.15;100098.31;10546930;28;20044;-62
2023/10/24 04:59:30;;;;;;;1999.90;999.90;;;;;;;17.05;79.56;100101.22;10546769;28;20127;-61
2023/10/24 05:04:33;;;;;;;1999.90;999.90;;;;;;;17.53;77.95;100101.91;10546439;28;20048;-62
2023/10/24 05:09:35;;;;;;;1999.90;999.90;;;;;;;16.54;81.31;100105.97;10545598;28;20558;-61
2023/10/24 05:14:38;;;;;;;1999.90;999.90;;;;;;;17.20;78.99;100106.84;10528301;28;20073;-61
2023/10/24 05:19:41;;;;;;;1999.90;999.90;;;;;;;16.92;80.37;100109.50;10546528;28;20065;-61
2023/10/24 05:24:46;;;;;;;1999.90;999.90;;;;;;;16.17;81.89;100104.09;10527598;28;20055;-61
2023/10/24 05:29:48;;;;;;;1999.90;999.90;;;;;;;17.52;79.18;100102.91;10544974;28;20409;-61
2023/10/24 05:34:50;;;;;;;1999.90;999.90;;;;;;;17.20;79.47;100096.28;10544724;28;20066;-61
2023/10/24 05:39:53;;;;;;;1999.90;999.90;;;;;;;16.57;82.10;100113.59;10527239;28;20054;-61
2023/10/24 05:44:55;;;;;;;1999.90;999.90;;;;;;;16.43;82.13;100098.22;10526395;28;20400;-61
2023/10/24 05:49:58;;;;;;;1999.90;999.90;;;;;;;16.89;80.52;100101.84;10544732;28;20058;-61
2023/10/24 05:55:00;;;;;;;1999.90;999.90;;;;;;;16.56;78.14;100090.81;10526351;28;20048;-61
2023/10/24 06:00:03;;;;;;;1999.90;999.90;;;;;;;16.87;79.94;100088.75;10544408;28;20048;-61
2023/10/24 06:05:06;;;;;;;1999.90;999.90;;;;;;;16.00;78.94;100091.63;10526129;28;20054;-62
2023/10/24 06:10:09;;;;;;;1999.90;999.90;;;;;;;17.11;77.91;100102.44;10543068;28;20052;-62
2023/10/24 06:15:11;;;;;;;1999.90;999.90;;;;;;;16.80;79.79;100118.56;10543059;28;20047;-62
2023/10/24 06:20:14;;;;;;;1999.90;999.90;;;;;;;16.18;81.06;100116.34;10543552;28;20051;-62
2023/10/24 06:25:16;;;;;;;1999.90;999.90;;;;;;;16.71;80.71;100125.56;10543289;28;20126;-62
2023/10/24 06:30:18;;;;;;;1999.90;999.90;;;;;;;16.34;80.75;100126.34;10542556;28;20071;-61
2023/10/24 06:35:21;;;;;;;1999.90;999.90;;;;;;;16.80;81.04;100122.03;10542946;28;20051;-62
2023/10/24 06:40:23;;;;;;;1999.90;999.90;;;;;;;17.15;78.22;100120.53;10542080;28;20151;-62
2023/10/24 06:45:25;;;;;;;1999.90;999.90;;;;;;;16.77;79.67;100126.78;10542442;28;20071;-62
2023/10/24 06:50:31;;;;;;;1999.90;999.90;;;;;;;16.73;79.35;100120.94;10525031;28;20135;-62
2023/10/24 06:55:33;;;;;;;1999.90;999.90;;;;;;;16.89;77.42;100123.00;10542143;28;20040;-61
2023/10/24 07:00:36;;;;;;;1999.90;999.90;;;;;;;16.59;79.26;100124.88;10541269;28;20151;-61
2023/10/24 07:05:38;;;;;;;1999.90;999.90;;;;;;;17.07;78.93;100141.56;10522882;28;20072;-62
2023/10/24 07:10:41;;;;;;;1999.90;999.90;;;;;;;16.91;77.49;100142.19;10541609;28;20131;-62
2023/10/24 07:15:43;;;;;;;1999.90;999.90;;;;;;;16.97;77.29;100123.09;10541399;28;20072;-61
2023/10/24 07:20:47;;;;;;;1999.90;999.90;;;;;;;17.11;77.55;100107.72;10522608;28;20078;-61
2023/10/24 07:25:56;;;;;;;1999.90;999.90;;;;;;;16.55;77.81;100120.84;10540973;28;20047;-61
2023/10/24 07:30:59;;;;;;;1999.90;999.90;;;;;;;16.67;79.19;100118.88;10540919;28;20055;-61
2023/10/24 07:36:08;;;;;;;1999.90;999.90;;;;;;;16.63;78.19;100115.69;10540735;28;20055;-62
2023/10/24 07:41:11;;;;;;;1999.90;999.90;;;;;;;16.26;80.75;100111.19;10521964;28;20055;-61
2023/10/24 07:46:13;;;;;;;1999.90;999.90;;;;;;;16.59;77.85;100108.19;10540475;28;20082;-61
2023/10/24 07:51:16;;;;;;;1999.90;999.90;;;;;;;16.27;77.64;100112.88;10522352;28;20070;-61
2023/10/24 07:56:18;;;;;;;1999.90;999.90;;;;;;;16.85;77.32;100098.66;10540223;28;20052;-62
2023/10/24 08:01:21;;;;;;;1999.90;999.90;;;;;;;17.10;77.51;100096.31;10539948;28;20052;-62
2023/10/24 08:06:23;;;;;;;1999.90;999.90;;;;;;;17.38;76.62;100083.91;10539645;28;20060;-62
2023/10/24 08:11:25;;;;;;;1999.90;999.90;;;;;;;17.08;76.70;100093.00;10539831;28;20059;-61
2023/10/24 08:16:28;;;;;;;1999.90;999.90;;;;;;;17.80;76.36;100079.81;10539435;28;20428;-62
2023/10/24 08:21:30;;;;;;;1999.90;999.90;;;;;;;17.41;74.13;100080.13;10547616;28;20735;-62
2023/10/24 08:26:33;;;;;;;1999.90;999.90;;;;;;;17.51;77.86;100082.69;10547512;28;20405;-61
2023/10/24 08:31:35;;;;;;;1999.90;999.90;;;;;;;17.75;74.66;100080.28;10547303;28;20048;-61
2023/10/24 08:36:57;;;;;;;1999.90;999.90;;;;;;;17.23;78.90;100088.88;10547088;28;20417;-61
2023/10/24 08:42:00;;;;;;;1999.90;999.90;;;;;;;17.88;75.37;100089.69;10512928;28;20040;-62
2023/10/24 08:47:03;;;;;;;1999.90;999.90;;;;;;;17.69;74.32;100125.91;10529458;28;20048;-61
2023/10/24 08:52:06;;;;;;;1999.90;999.90;;;;;;;17.95;75.41;100115.38;10546454;28;20603;-61
2023/10/24 08:57:30;;;;;;;;;;;;;;;17.70;76.51;100135.50;10546807;28;20076;-61
2023/10/24 09:02:33;;;;;;;1999.90;999.90;;;;;;;18.39;74.26;100133.09;10546634;28;19956;-62
2023/10/24 09:07:36;;;;;;;1999.90;999.90;;;;;;;18.84;73.86;100131.28;10545777;28;20076;-61
2023/10/24 09:12:39;;;;;;;1999.90;999.90;;;;;;;20.00;70.43;100114.69;10546322;28;20047;-62
2023/10/24 09:17:43;;;;;;;1999.90;999.90;;;;;;;20.00;66.92;100085.44;10545522;28;20413;-61
2023/10/24 09:22:46;;;;;;;1999.90;999.90;;;;;;;20.07;67.43;100096.25;10449101;22;20057;-70
2023/10/24 09:27:48;;;;;;;1999.90;999.90;;;;;;;20.64;69.55;100085.53;10373663;28;20054;-69
2023/10/24 09:32:50;;;;;;;1999.90;999.90;;;;;;;21.12;63.59;100069.56;10355566;28;20092;-73
2023/10/24 09:37:54;;;;;;;1999.90;999.90;;;;;;;21.14;63.40;100072.88;10373236;28;20050;-74
2023/10/24 09:42:56;;;;;;;1999.90;999.90;;;;;;;20.63;63.11;100075.91;10372398;28;20486;-74
2023/10/24 09:47:59;;;;;;;1999.90;999.90;;;;;;;21.30;63.32;100090.56;10372346;28;20072;-74
2023/10/24 09:53:02;;;;;;;1999.90;999.90;;;;;;;19.34;66.20;100082.72;10355504;28;20058;-74
2023/10/24 09:58:06;;;;;;;1999.90;999.90;;;;;;;19.49;66.09;100099.66;10354853;28;20050;-73
2023/10/24 10:03:10;;;;;;;1999.90;999.90;;;;;;;19.65;66.82;100098.88;10355130;28;20049;-74
2023/10/24 10:08:16;;;;;;;1999.90;999.90;;;;;;;19.59;67.18;100086.22;10371748;28;20068;-74
2023/10/24 10:13:25;;;;;;;1999.90;999.90;;;;;;;20.10;66.33;100088.75;10372231;28;20120;-74
2023/10/24 10:19:02;;;;;;;1999.90;999.90;;;;;;;19.26;69.46;100086.16;10354465;28;20054;-74
2023/10/24 10:24:35;;;;;;;1999.90;999.90;;;;;;;19.29;69.03;100079.72;10353833;28;20046;-74
2023/10/24 10:30:13;;;;;;;1999.90;999.90;;;;;;;19.12;68.58;100077.00;10354359;28;20130;-69
2023/10/24 10:35:46;;;;;;;1999.90;999.90;;;;;;;19.93;67.54;100073.84;10353013;28;20057;-70
2023/10/24 10:40:49;;;;;;;1999.90;999.90;;;;;;;19.85;66.93;100066.69;10352287;28;20466;-69
2023/10/24 10:45:51;;;;;;;1999.90;999.90;;;;;;;19.69;66.83;100054.22;10337036;28;20050;-69
2023/10/24 10:50:54;;;;;;;1999.90;999.90;;;;;;;20.03;65.13;100064.69;10337532;28;20046;-70
2023/10/24 10:56:25;;;;;;;1999.90;999.90;;;;;;;19.94;67.66;100057.72;10370894;28;20121;-69
2023/10/24 11:01:51;;;;;;;1999.90;999.90;;;;;;;19.31;66.69;100048.53;10352716;28;20504;-69
2023/10/24 11:06:55;;;;;;;1999.90;999.90;;;;;;;19.56;67.28;100056.53;10352598;28;20494;-69
2023/10/24 11:12:26;;;;;;;1999.90;999.90;;;;;;;19.56;66.28;100060.00;10353098;28;20077;-69
2023/10/24 11:17:28;;;;;;;1999.90;999.90;;;;;;;19.56;65.62;100043.25;10352385;28;20485;-69
2023/10/24 11:22:31;;;;;;;1999.90;999.90;;;;;;;19.39;67.51;100053.84;10352249;28;20123;-69
2023/10/24 11:27:34;;;;;;;1999.90;999.90;;;;;;;18.75;68.23;100051.66;10352658;28;20096;-69
2023/10/24 11:32:37;;;;;;;1999.90;999.90;;;;;;;19.53;68.26;100056.84;10369151;28;20490;-69
2023/10/24 11:37:39;;;;;;;1999.90;999.90;;;;;;;19.41;66.97;100049.19;10369590;28;20053;-69
2023/10/24 11:42:41;;;;;;;1999.90;999.90;;;;;;;18.83;70.48;100050.03;10352061;28;20054;-69
2023/10/24 11:47:44;;;;;;;1999.90;999.90;;;;;;;19.22;67.26;100053.00;10368599;28;20204;-69
2023/10/24 11:52:46;;;;;;;1999.90;999.90;;;;;;;19.05;70.22;100048.66;10368190;28;20046;-69
2023/10/24 11:57:49;;;;;;;1999.90;999.90;;;;;;;18.65;71.75;100061.53;10351045;28;20103;-69
2023/10/24 12:02:53;;;;;;;1999.90;999.90;;;;;;;18.86;73.15;100058.53;10351598;28;20060;-69
2023/10/24 12:08:00;;;;;;;1999.90;999.90;;;;;;;18.13;74.20;100062.41;10368774;28;20057;-69
2023/10/24 12:13:03;;;;;;;1999.90;999.90;;;;;;;18.38;75.22;100066.03;10367983;28;20077;-69
2023/10/24 12:18:06;;;;;;;1999.90;999.90;;;;;;;18.45;77.41;100070.72;10350807;28;20082;-69
2023/10/24 12:23:08;;;;;;;1999.90;999.90;;;;;;;18.59;74.94;100056.88;10367922;28;20065;-69
2023/10/24 12:28:10;;;;;;;1999.90;999.90;;;;;;;18.27;74.64;100053.03;10350957;28;20060;-69
2023/10/24 12:33:13;;;;;;;1999.90;999.90;;;;;;;18.40;75.37;100055.28;10350815;28;20046;-68
2023/10/24 12:38:17;;;;;;;1999.90;999.90;;;;;;;18.27;76.55;100054.88;10368163;28;20054;-69
2023/10/24 12:43:19;;;;;;;1999.90;999.90;;;;;;;18.15;74.24;100049.00;10350404;28;20085;-69
2023/10/24 12:48:22;;;;;;;1999.90;999.90;;;;;;;18.01;75.41;100024.75;10367711;28;20064;-69
2023/10/24 12:53:25;;;;;;;1999.90;999.90;;;;;;;18.57;72.56;100019.91;10349852;28;20129;-69
2023/10/24 12:58:27;;;;;;;1999.90;999.90;;;;;;;18.22;73.84;100010.28;10367462;28;20053;-70
2023/10/24 13:03:30;;;;;;;1999.90;999.90;;;;;;;18.26;74.75;100024.09;10367012;28;20409;-70
2023/10/24 13:08:32;;;;;;;1999.90;999.90;;;;;;;17.83;76.88;100008.03;10374316;28;20050;-70
2023/10/24 13:13:35;;;;;;;1999.90;999.90;;;;;;;18.24;76.66;100023.38;10373488;28;20050;-70
2023/10/24 13:18:37;;;;;;;1999.90;999.90;;;;;;;18.93;72.49;100018.94;10373308;28;20410;-70
2023/10/24 13:23:39;;;;;;;1999.90;999.90;;;;;;;17.78;77.14;100042.06;10355572;28;20050;-69
2023/10/24 13:28:42;;;;;;;1999.90;999.90;;;;;;;18.62;74.43;100061.03;10373599;28;20136;-70
2023/10/24 13:33:44;;;;;;;1999.90;999.90;;;;;;;18.18;76.75;100051.34;10373466;28;20107;-70
2023/10/24 13:38:50;;;;;;;1999.90;999.90;;;;;;;18.37;75.23;100047.63;10355802;28;20528;-70
2023/10/24 13:43:52;;;;;;;1999.90;999.90;;;;;;;18.99;74.06;100039.50;10372436;28;20050;-69
2023/10/24 13:48:57;;;;;;;1999.90;999.90;;;;;;;19.33;71.57;100027.94;10372992;28;20107;-70
2023/10/24 13:54:02;;;;;;;1999.90;999.90;;;;;;;18.93;73.28;100026.91;10355314;28;20536;-70
2023/10/24 13:59:04;;;;;;;1999.90;999.90;;;;;;;18.91;75.72;100028.84;10354956;28;20089;-70
2023/10/24 14:04:07;;;;;;;1999.90;999.90;;;;;;;18.76;72.66;100028.59;10372459;28;20155;-69
2023/10/24 14:09:09;;;;;;;1999.90;999.90;;;;;;;18.58;74.12;100028.72;10355005;28;20050;-69
2023/10/24 14:14:12;;;;;;;1999.90;999.90;;;;;;;18.48;73.75;100046.56;10371613;28;20398;-70
2023/10/24 14:19:14;;;;;;;1999.90;999.90;;;;;;;18.10;76.04;100043.34;10371996;28;20050;-69
2023/10/24 14:24:16;;;;;;;1999.90;999.90;;;;;;;18.53;76.10;100046.91;10370868;28;20137;-69
2023/10/24 14:29:19;;;;;;;1999.90;999.90;;;;;;;18.55;76.02;100052.88;10371764;28;20050;-70
2023/10/24 14:34:21;;;;;;;1999.90;999.90;;;;;;;18.26;78.15;100054.03;10354238;28;20046;-70
2023/10/24 14:39:24;;;;;;;1999.90;999.90;;;;;;;18.48;76.75;100057.97;10370763;28;20402;-69
2023/10/24 14:44:26;;;;;;;1999.90;999.90;;;;;;;18.68;73.19;100049.81;10353857;28;20129;-70
2023/10/24 14:49:28;;;;;;;1999.90;999.90;;;;;;;18.13;77.12;100040.38;10353868;28;20082;-70
2023/10/24 14:54:31;;;;;;;1999.90;999.90;;;;;;;18.62;71.95;100030.03;10370901;28;20053;-70
2023/10/24 14:59:33;;;;;;;1999.90;999.90;;;;;;;18.12;73.95;100038.72;10353453;28;20053;-70
2023/10/24 15:04:35;;;;;;;1999.90;999.90;;;;;;;18.51;74.12;100028.50;10369948;28;20042;-70
2023/10/24 15:09:38;;;;;;;1999.90;999.90;;;;;;;17.97;77.26;100025.19;10369895;28;20054;-70
2023/10/24 15:14:40;;;;;;;1999.90;999.90;;;;;;;17.75;77.18;100022.06;10370329;28;20057;-69
2023/10/24 15:19:44;;;;;;;1999.90;999.90;;;;;;;17.49;77.04;100021.16;10353176;28;20056;-70
2023/10/24 15:24:48;;;;;;;1999.90;999.90;;;;;;;17.69;76.05;100017.34;10319928;28;20076;-70
2023/10/24 15:29:54;;;;;;;1999.90;999.90;;;;;;;18.14;75.40;100028.78;10368640;28;20056;-70
2023/10/24 15:34:57;;;;;;;1999.90;999.90;;;;;;;17.78;75.79;100021.72;10351959;28;20045;-70
2023/10/24 15:39:59;;;;;;;1999.90;999.90;;;;;;;18.00;75.45;100024.88;10368924;28;20482;-70
2023/10/24 15:45:01;;;;;;;1999.90;999.90;;;;;;;17.88;74.90;100026.13;10369309;28;20050;-70
2023/10/24 15:50:05;;;;;;;1999.90;999.90;;;;;;;17.52;77.13;100026.97;10351359;28;20517;-70
2023/10/24 15:55:08;;;;;;;1999.90;999.90;;;;;;;17.60;75.49;100032.34;10369166;28;20045;-70
2023/10/24 16:00:29;;;;;;;1999.90;999.90;;;;;;;17.48;74.38;100017.66;10368459;28;20414;-70
2023/10/24 16:05:32;;;;;;;1999.90;999.90;;;;;;;17.59;74.06;100017.44;10350909;28;20054;-70
2023/10/24 16:10:34;;;;;;;1999.90;999.90;;;;;;;17.51;74.86;100019.19;10350624;28;20406;-70
2023/10/24 16:15:37;;;;;;;1999.90;999.90;;;;;;;17.31;74.63;100015.88;10350574;28;20067;-70
2023/10/24 16:20:39;;;;;;;1999.90;999.90;;;;;;;17.11;76.51;100017.81;10350922;28;20057;-70
2023/10/24 16:25:42;;;;;;;1999.90;999.90;;;;;;;17.17;74.89;100027.81;10368337;28;20125;-70
2023/10/24 16:30:44;;;;;;;1999.90;999.90;;;;;;;17.26;74.36;100030.38;10368185;28;20102;-70
2023/10/24 16:35:47;;;;;;;1999.90;999.90;;;;;;;16.66;78.03;100029.97;10368085;28;20056;-70
2023/10/24 16:40:50;;;;;;;1999.90;999.90;;;;;;;17.22;76.21;100033.47;10371666;28;20077;-69
2023/10/24 16:45:53;;;;;;;1999.90;999.90;;;;;;;16.43;81.47;100043.56;10341217;28;20529;-69
2023/10/24 16:50:56;;;;;;;1999.90;999.90;;;;;;;17.31;76.06;100032.56;10357604;28;20088;-70
2023/10/24 16:55:59;;;;;;;1999.90;999.90;;;;;;;17.28;75.37;100040.78;10374126;28;20046;-70
2023/10/24 17:01:01;;;;;;;1999.90;999.90;;;;;;;17.05;74.81;100046.50;10373982;28;20052;-70
2023/10/24 17:06:04;;;;;;;1999.90;999.90;;;;;;;16.49;76.51;100056.22;10374354;28;20050;-70
2023/10/24 17:11:07;;;;;;;1999.90;999.90;;;;;;;16.60;75.62;100052.53;10374258;28;20137;-70
2023/10/24 17:16:10;;;;;;;1999.90;999.90;;;;;;;16.84;74.12;100054.69;10373448;28;20486;-70
2023/10/24 17:21:12;;;;;;;1999.90;999.90;;;;;;;16.68;75.66;100057.94;10373075;28;20066;-69
2023/10/24 17:26:15;;;;;;;1999.90;999.90;;;;;;;16.32;75.35;100060.44;10339577;28;20497;-69
2023/10/24 17:31:19;;;;;;;1999.90;999.90;;;;;;;16.43;75.66;100059.44;10373694;28;20129;-70
2023/10/24 17:36:21;;;;;;;1999.90;999.90;;;;;;;16.40;76.11;100067.63;10373481;28;20053;-69
2023/10/24 17:41:24;;;;;;;1999.90;999.90;;;;;;;16.50;77.11;100065.78;10373260;28;20054;-70
2023/10/24 17:46:26;;;;;;;1999.90;999.90;;;;;;;16.48;74.97;100064.28;10373048;28;20125;-69
2023/10/24 17:51:30;;;;;;;1999.90;999.90;;;;;;;16.24;76.39;100077.94;10339397;28;20050;-69
2023/10/24 17:56:39;;;;;;;1999.90;999.90;;;;;;;16.52;75.30;100076.22;10355913;28;20053;-69
2023/10/24 18:01:42;;;;;;;1999.90;999.90;;;;;;;16.47;75.61;100078.47;10355370;28;20050;-69
2023/10/24 18:06:44;;;;;;;1999.90;999.90;;;;;;;16.38;76.28;100082.81;10371914;28;20102;-69
2023/10/24 18:11:48;;;;;;;1999.90;999.90;;;;;;;16.24;75.41;100088.50;10371700;28;20056;-69
2023/10/24 18:16:50;;;;;;;1999.90;999.90;;;;;;;16.15;75.17;100087.56;10372129;28;20048;-69
2023/10/24 18:21:53;;;;;;;1999.90;999.90;;;;;;;16.08;75.15;100092.56;10371719;28;20058;-69
2023/10/24 18:26:55;;;;;;;1999.90;999.90;;;;;;;15.82;76.53;100086.19;10354682;28;20050;-69
2023/10/24 18:31:58;;;;;;;1999.90;999.90;;;;;;;15.86;76.63;100090.25;10371680;28;20050;-69
2023/10/24 18:37:01;;;;;;;1999.90;999.90;;;;;;;15.92;77.40;100084.38;10354308;28;20050;-69
2023/10/24 18:42:03;;;;;;;1999.90;999.90;;;;;;;15.86;77.18;100080.50;10370817;28;20058;-69
2023/10/24 18:47:07;;;;;;;1999.90;999.90;;;;;;;15.52;79.71;100080.06;10337179;28;20133;-69
2023/10/24 18:52:09;;;;;;;1999.90;999.90;;;;;;;15.43;79.41;100086.97;10353953;28;20046;-69
2023/10/24 18:57:12;;;;;;;1999.90;999.90;;;;;;;15.56;79.08;100082.28;10353538;28;20042;-69
2023/10/24 19:02:14;;;;;;;1999.90;999.90;;;;;;;16.06;80.14;100086.59;10369733;28;20060;-69
2023/10/24 19:07:19;;;;;;;1999.90;999.90;;;;;;;16.14;77.66;100081.47;10369886;28;20414;-69
2023/10/24 19:12:22;;;;;;;1999.90;999.90;;;;;;;15.24;82.11;100088.59;10369793;28;20589;-69
2023/10/24 19:17:24;;;;;;;1999.90;999.90;;;;;;;16.04;79.05;100085.94;10352850;28;20046;-69
2023/10/24 19:22:27;;;;;;;1999.90;999.90;;;;;;;15.86;77.59;100087.59;10369724;28;20050;-69
2023/10/24 19:27:30;;;;;;;1999.90;999.90;;;;;;;15.92;79.81;100081.75;10352523;28;20049;-69
2023/10/24 19:32:33;;;;;;;1999.90;999.90;;;;;;;15.89;79.62;100087.34;10352623;28;20049;-69
2023/10/24 19:37:37;;;;;;;1999.90;999.90;;;;;;;16.08;77.71;100089.13;10369018;28;20536;-69
2023/10/24 19:42:39;;;;;;;1999.90;999.90;;;;;;;15.77;77.15;100087.47;10369555;28;20129;-69
2023/10/24 19:47:49;;;;;;;1999.90;999.90;;;;;;;16.02;75.60;100101.09;10369331;28;20145;-69
2023/10/24 19:52:53;;;;;;;1999.90;999.90;;;;;;;15.69;78.73;100095.22;10352390;28;20050;-69
2023/10/24 19:57:56;;;;;;;1999.90;999.90;;;;;;;15.35;77.85;100106.13;10369069;28;20050;-69
2023/10/24 20:02:58;;;;;;;1999.90;999.90;;;;;;;16.15;78.12;100100.78;10350929;28;20084;-69
2023/10/24 20:08:02;;;;;;;1999.90;999.90;;;;;;;16.35;74.70;100096.28;10319130;28;20060;-69
2023/10/24 20:13:06;;;;;;;1999.90;999.90;;;;;;;15.53;78.64;100094.91;10352720;28;20052;-69
2023/10/24 20:18:11;;;;;;;1999.90;999.90;;;;;;;15.71;77.82;100093.25;10375357;28;20410;-69
2023/10/24 20:23:14;;;;;;;1999.90;999.90;;;;;;;15.98;75.29;100084.66;10374906;28;20054;-68
2023/10/24 20:28:16;;;;;;;1999.90;999.90;;;;;;;15.61;77.02;100092.41;10357641;28;20508;-68
2023/10/24 20:33:19;;;;;;;1999.90;999.90;;;;;;;15.95;75.86;100084.97;10358105;28;20121;-68
2023/10/24 20:38:21;;;;;;;1999.90;999.90;;;;;;;15.61;79.90;100080.06;10375361;28;20060;-68
2023/10/24 20:43:23;;;;;;;1999.90;999.90;;;;;;;15.85;76.66;100088.56;10357706;28;20077;-68
2023/10/24 20:48:26;;;;;;;1999.90;999.90;;;;;;;16.15;74.07;100093.69;10357040;28;20418;-68
2023/10/24 20:53:28;;;;;;;1999.90;999.90;;;;;;;15.81;77.14;100098.56;10357520;28;20053;-68
2023/10/24 20:58:31;;;;;;;1999.90;999.90;;;;;;;15.66;77.81;100098.13;10374586;28;20060;-68
2023/10/24 21:03:33;;;;;;;1999.90;999.90;;;;;;;15.78;75.75;100091.78;10373785;28;20551;-68
2023/10/24 21:08:36;;;;;;;1999.90;999.90;;;;;;;15.31;76.93;100088.06;10374326;28;20081;-68
2023/10/24 21:13:39;;;;;;;1999.90;999.90;;;;;;;15.21;76.66;100088.06;10374209;28;20125;-68
2023/10/24 21:18:42;;;;;;;1999.90;999.90;;;;;;;15.53;75.79;100087.84;10374006;28;20133;-68
2023/10/24 21:23:45;;;;;;;1999.90;999.90;;;;;;;15.39;76.30;100085.59;10372719;28;20058;-68
2023/10/24 21:28:48;;;;;;;1999.90;999.90;;;;;;;14.98;78.58;100093.56;10339586;28;20050;-68
2023/10/24 21:33:51;;;;;;;1999.90;999.90;;;;;;;15.57;75.47;100091.03;10356185;28;20133;-68
2023/10/24 21:38:53;;;;;;;1999.90;999.90;;;;;;;15.30;76.47;100081.97;10538667;23;20044;-62
2023/10/24 21:43:55;;;;;;;1999.90;999.90;;;;;;;15.52;76.88;100080.06;10527270;28;20044;-62
2023/10/24 21:48:58;;;;;;;1999.90;999.90;;;;;;;15.99;74.39;100085.50;10545122;28;20052;-62
2023/10/24 21:54:01;;;;;;;1999.90;999.90;;;;;;;15.81;76.89;100092.47;10526448;28;20416;-62
2023/10/24 21:59:03;;;;;;;1999.90;999.90;;;;;;;15.50;75.71;100088.13;10544826;28;20060;-62